Terminal Aerodrome Forecast
Issued by NWS

Home | Current Version | Previous Version | Graphics & Text | Print | Product List | Glossary On
Versions: 1 2 3 4 5 6 7 8 9 10 11 12 13 14 15 16 17 18 19 20 21 22 23 24 25 26
208
FTUS43 KABR 210051 AAA
TAFMBG
TAF AMD
KMBG 210051Z 2101/2124 34006KT 3SM BR OVC011
     FM210200 17004KT 2SM BR OVC008
     FM210500 13005KT 3/4SM BR OVC003
     FM210600 13005KT 1/4SM FZFG OVC003
     FM211600 VRB03KT 1SM BR OVC003
     FM211900 30005KT 4SM BR OVC008
     FM212100 30007KT P6SM OVC008
     FM212200 31007KT P6SM OVC010=

USA.gov is the U.S. government's official web portal to all federal, state and local government web resources and services.